createdAt,value
2023-04-24T00:01:02.701Z,99260.79
2023-04-24T00:03:30.623Z,99259.35
2023-04-24T00:05:59.413Z,99261.86
2023-04-24T00:08:26.910Z,99262.29
2023-04-24T00:10:53.840Z,99259.90
2023-04-24T00:13:20.630Z,99262.06
2023-04-24T00:15:48.044Z,99260.17
2023-04-24T00:18:14.915Z,99262.04
2023-04-24T00:20:41.804Z,99260.64
2023-04-24T00:23:08.507Z,99260.83
2023-04-24T00:25:35.261Z,99261.39
2023-04-24T00:28:02.652Z,99258.70
2023-04-24T00:30:29.601Z,99259.14
2023-04-24T00:32:57.372Z,99263.63
2023-04-24T00:35:24.315Z,99260.70
2023-04-24T00:37:51.200Z,99263.05
2023-04-24T00:40:17.954Z,99262.67
2023-04-24T00:42:45.448Z,99264.40
2023-04-24T00:45:12.648Z,99263.14
2023-04-24T00:47:39.358Z,99263.25
2023-04-24T00:50:07.303Z,99261.94
2023-04-24T00:52:35.144Z,99261.75
2023-04-24T00:55:01.852Z,99259.73
2023-04-24T00:57:29.023Z,99257.43
2023-04-24T00:59:55.692Z,99258.09
2023-04-24T01:02:23.600Z,99255.59
2023-04-24T01:04:53.508Z,99253.57
2023-04-24T01:07:21.234Z,99257.99
2023-04-24T01:09:49.318Z,99254.91
2023-04-24T01:12:16.029Z,99254.63
2023-04-24T01:14:44.651Z,99250.66
2023-04-24T01:17:11.368Z,99249.84
2023-04-24T01:19:38.863Z,99246.72
2023-04-24T01:22:13.285Z,99248.39
2023-04-24T01:24:40.285Z,99248.15
2023-04-24T01:27:07.672Z,99250.53
2023-04-24T01:29:34.902Z,99249.95
2023-04-24T01:32:03.606Z,99247.80
2023-04-24T01:34:30.977Z,99244.49
2023-04-24T01:36:57.679Z,99243.16
2023-04-24T01:39:26.072Z,99241.92
2023-04-24T01:41:55.132Z,99241.09
2023-04-24T01:44:21.927Z,99237.77
2023-04-24T01:46:48.702Z,99235.16
2023-04-24T01:49:15.984Z,99235.16
2023-04-24T01:51:42.636Z,99234.27
2023-04-24T01:54:09.311Z,99232.55
2023-04-24T01:56:36.630Z,99228.73
2023-04-24T01:59:04.337Z,99225.88
2023-04-24T02:01:36.458Z,99224.66
2023-04-24T02:04:03.955Z,99225.14
2023-04-24T02:06:31.714Z,99222.05
2023-04-24T02:09:01.245Z,99221.42
2023-04-24T02:11:28.602Z,99222.06
2023-04-24T02:13:55.539Z,99214.05
2023-04-24T02:16:22.269Z,99216.00
2023-04-24T02:18:49.149Z,99216.56
2023-04-24T02:21:16.063Z,99212.67
2023-04-24T02:23:42.745Z,99212.12
2023-04-24T02:26:10.713Z,99216.70
2023-04-24T02:28:37.439Z,99211.81
2023-04-24T02:31:04.096Z,99209.97
2023-04-24T02:33:31.382Z,99211.13
2023-04-24T02:35:58.227Z,99209.02
2023-04-24T02:38:25.394Z,99207.99
2023-04-24T02:40:52.587Z,99210.33
2023-04-24T02:43:19.810Z,99210.64
2023-04-24T02:45:46.652Z,99209.13
2023-04-24T02:48:13.414Z,99206.75
2023-04-24T02:50:40.091Z,99206.87
2023-04-24T02:53:06.782Z,99206.84
2023-04-24T02:55:33.510Z,99203.42
2023-04-24T02:58:00.469Z,99205.73
2023-04-24T03:00:27.258Z,99207.09
2023-04-24T03:02:54.145Z,99207.01
2023-04-24T03:05:21.201Z,99201.11
2023-04-24T03:07:47.942Z,99203.57
2023-04-24T03:10:14.765Z,99200.88
2023-04-24T03:12:42.648Z,99200.17
2023-04-24T03:15:09.716Z,99199.54
2023-04-24T03:17:38.384Z,99196.66
2023-04-24T03:20:06.736Z,99201.46
2023-04-24T03:22:35.011Z,99200.56
2023-04-24T03:25:02.442Z,99201.80
2023-04-24T03:27:29.531Z,99204.17
2023-04-24T03:30:01.201Z,99212.48
2023-04-24T03:32:34.879Z,99210.80
2023-04-24T03:35:01.845Z,99218.67
2023-04-24T03:37:28.977Z,99211.14
2023-04-24T03:40:09.752Z,99213.46
2023-04-24T03:42:39.129Z,99214.48
2023-04-24T03:45:07.376Z,99216.94
2023-04-24T03:47:35.322Z,99217.04
2023-04-24T03:50:02.361Z,99217.59
2023-04-24T03:52:30.086Z,99220.40
2023-04-24T03:54:56.779Z,99221.38
2023-04-24T03:57:24.494Z,99222.04
2023-04-24T04:00:06.760Z,99219.01
2023-04-24T04:02:41.814Z,99224.45
2023-04-24T04:05:09.809Z,99223.30
2023-04-24T04:07:37.039Z,99219.85
2023-04-24T04:10:04.567Z,99219.61
2023-04-24T04:12:31.475Z,99220.40
2023-04-24T04:14:58.607Z,99221.19
2023-04-24T04:17:25.561Z,99221.91
2023-04-24T04:19:52.682Z,99230.49
2023-04-24T04:22:19.275Z,99230.98
2023-04-24T04:24:51.389Z,99228.34
2023-04-24T04:27:21.631Z,99227.91
2023-04-24T04:29:53.922Z,99226.49
2023-04-24T04:32:22.042Z,99225.58
2023-04-24T04:34:49.841Z,99226.48
2023-04-24T04:37:17.676Z,99227.30
2023-04-24T04:40:07.141Z,99234.45
2023-04-24T04:42:40.671Z,99231.66
2023-04-24T04:45:12.013Z,99229.81
2023-04-24T04:47:49.163Z,99230.04
2023-04-24T04:50:17.086Z,99229.32
2023-04-24T04:52:43.753Z,99229.05
2023-04-24T04:55:24.632Z,99227.19
2023-04-24T04:58:07.998Z,99226.15
2023-04-24T05:00:37.949Z,99228.05
2023-04-24T05:03:20.740Z,99229.15
2023-04-24T05:05:52.915Z,99230.90
2023-04-24T05:08:27.134Z,99224.23
2023-04-24T05:10:55.750Z,99224.50
2023-04-24T05:13:35.642Z,99225.15
2023-04-24T05:16:10.415Z,99225.55
2023-04-24T05:18:37.297Z,99223.81
2023-04-24T05:21:04.936Z,99225.05
2023-04-24T05:23:32.544Z,99227.96
2023-04-24T05:25:59.447Z,99228.22
2023-04-24T05:28:29.118Z,99226.34
2023-04-24T05:31:04.032Z,99226.73
2023-04-24T05:33:31.883Z,99225.34
2023-04-24T05:35:58.619Z,99221.21
2023-04-24T05:38:25.701Z,99224.30
2023-04-24T05:40:53.307Z,99220.29
2023-04-24T05:43:20.328Z,99218.20
2023-04-24T05:45:48.298Z,99214.13
2023-04-24T05:48:15.341Z,99209.66
2023-04-24T05:50:42.307Z,99209.33
2023-04-24T05:53:11.079Z,99204.34
2023-04-24T05:55:38.414Z,99213.23
2023-04-24T05:58:05.202Z,99215.93
2023-04-24T06:00:35.904Z,99212.83
2023-04-24T06:03:05.328Z,99211.23
2023-04-24T06:05:32.599Z,99210.83
2023-04-24T06:07:59.736Z,99211.10
2023-04-24T06:10:30.543Z,99208.56
2023-04-24T06:13:00.783Z,99208.70
2023-04-24T06:15:30.724Z,99205.34
2023-04-24T06:18:01.169Z,99209.19
2023-04-24T06:20:28.109Z,99211.84
2023-04-24T06:22:54.870Z,99210.08
2023-04-24T06:25:21.547Z,99210.59
2023-04-24T06:27:48.285Z,99212.44
2023-04-24T06:30:15.139Z,99207.20
2023-04-24T06:32:42.613Z,99208.33
2023-04-24T06:35:10.392Z,99205.62
2023-04-24T06:37:37.285Z,99207.51
2023-04-24T06:40:05.615Z,99206.42
2023-04-24T06:42:35.462Z,99209.77
2023-04-24T06:45:03.717Z,99213.41
2023-04-24T06:47:30.552Z,99209.38
2023-04-24T06:49:57.697Z,99211.18
2023-04-24T06:52:24.546Z,99206.77
2023-04-24T06:54:51.228Z,99207.39
2023-04-24T06:57:18.676Z,99206.39
2023-04-24T06:59:45.557Z,99206.14
2023-04-24T07:02:12.628Z,99208.52
2023-04-24T07:04:40.468Z,99210.23
2023-04-24T07:07:13.396Z,99211.79
2023-04-24T07:09:42.966Z,99215.41
2023-04-24T07:12:14.064Z,99217.07
2023-04-24T07:14:41.210Z,99220.44
2023-04-24T07:17:08.708Z,99223.35
2023-04-24T07:19:38.371Z,99220.42
2023-04-24T07:22:05.038Z,99217.46
2023-04-24T07:24:34.654Z,99219.38
2023-04-24T07:27:03.982Z,99218.56
2023-04-24T07:29:30.714Z,99215.34
2023-04-24T07:31:57.628Z,99217.87
2023-04-24T07:34:24.582Z,99216.77
2023-04-24T07:36:51.466Z,99212.97
2023-04-24T07:39:18.777Z,99210.71
2023-04-24T07:41:45.417Z,99209.84
2023-04-24T07:44:12.231Z,99212.61
2023-04-24T07:46:39.004Z,99210.60
2023-04-24T07:49:13.262Z,99208.73
2023-04-24T07:51:41.768Z,99211.98
2023-04-24T07:54:08.610Z,99210.65
2023-04-24T07:56:39.165Z,99214.54
2023-04-24T07:59:06.670Z,99218.38
2023-04-24T08:01:34.070Z,99213.48
2023-04-24T08:04:01.236Z,99215.45
2023-04-24T08:06:30.878Z,99216.38
2023-04-24T08:08:58.309Z,99212.14
2023-04-24T08:11:25.503Z,99209.48
2023-04-24T08:13:52.393Z,99206.36
2023-04-24T08:16:19.251Z,99208.41
2023-04-24T08:18:45.977Z,99203.35
2023-04-24T08:21:17.514Z,99211.30
2023-04-24T08:23:44.533Z,99206.31
2023-04-24T08:26:11.806Z,99200.82
2023-04-24T08:28:38.872Z,99202.15
2023-04-24T08:31:05.709Z,99204.30
2023-04-24T08:33:34.816Z,99208.32
2023-04-24T08:36:05.852Z,99201.64
2023-04-24T08:38:33.422Z,99195.69
2023-04-24T08:41:01.393Z,99193.89
2023-04-24T08:43:28.686Z,99193.55
2023-04-24T08:45:57.283Z,99186.83
2023-04-24T08:48:30.884Z,99188.07
2023-04-24T08:50:59.235Z,99187.48
2023-04-24T08:53:26.825Z,99178.84
2023-04-24T08:55:54.918Z,99179.02
2023-04-24T08:58:22.650Z,99180.17
2023-04-24T09:00:49.569Z,99170.98
2023-04-24T09:03:18.139Z,99170.53
2023-04-24T09:05:46.410Z,99166.78
2023-04-24T09:08:19.782Z,99165.23
2023-04-24T09:10:49.072Z,99165.98
2023-04-24T09:13:18.767Z,99163.64
2023-04-24T09:15:45.684Z,99164.94
2023-04-24T09:18:12.466Z,99160.67
2023-04-24T09:21:03.866Z,99156.02
2023-04-24T09:23:31.800Z,99155.02
2023-04-24T09:26:00.517Z,99146.44
2023-04-24T09:28:33.619Z,99134.20
2023-04-24T09:31:10.835Z,99143.38
2023-04-24T09:33:37.856Z,99143.42
2023-04-24T09:36:05.019Z,99141.19
2023-04-24T09:38:33.324Z,99151.19
2023-04-24T09:41:04.316Z,99142.46
2023-04-24T09:43:31.790Z,99145.48
2023-04-24T09:45:59.602Z,99142.61
2023-04-24T09:48:38.700Z,99143.33
2023-04-24T09:51:07.611Z,99133.52
2023-04-24T09:53:34.523Z,99141.52
2023-04-24T09:56:09.053Z,99134.89
2023-04-24T09:58:37.004Z,99135.05
2023-04-24T10:01:04.267Z,99132.07
2023-04-24T10:03:32.230Z,99125.35
2023-04-24T10:06:00.231Z,99123.30
2023-04-24T10:08:27.273Z,99119.05
2023-04-24T10:10:54.118Z,99118.15
2023-04-24T10:13:21.183Z,99123.98
2023-04-24T10:15:47.911Z,99120.91
2023-04-24T10:18:15.188Z,99116.55
2023-04-24T10:20:42.435Z,99121.86
2023-04-24T10:23:10.982Z,99113.70
2023-04-24T10:25:38.081Z,99116.98
2023-04-24T10:28:05.401Z,99116.98
2023-04-24T10:30:38.161Z,99119.48
2023-04-24T10:33:08.062Z,99117.64
2023-04-24T10:35:38.171Z,99116.42
2023-04-24T10:38:15.051Z,99110.02
2023-04-24T10:40:42.530Z,99105.78
2023-04-24T10:43:11.536Z,99106.92
2023-04-24T10:45:39.115Z,99103.55
2023-04-24T10:48:11.355Z,99097.46
2023-04-24T10:50:45.184Z,99094.19
2023-04-24T10:53:27.648Z,99090.16
2023-04-24T10:55:58.543Z,99090.77
2023-04-24T10:58:37.745Z,99076.83
2023-04-24T11:01:04.682Z,99077.60
2023-04-24T11:03:33.352Z,99074.52
2023-04-24T11:06:02.845Z,99073.75
2023-04-24T11:08:31.623Z,99074.27
2023-04-24T11:11:04.334Z,99076.22
2023-04-24T11:14:08.349Z,99073.27
2023-04-24T11:16:39.518Z,99070.59
2023-04-24T11:19:10.092Z,99069.05
2023-04-24T11:21:50.402Z,99082.53
2023-04-24T11:24:29.561Z,99077.40
2023-04-24T11:27:04.445Z,99077.43
2023-04-24T11:29:48.719Z,99072.80
2023-04-24T11:32:30.663Z,99066.14
2023-04-24T11:35:02.189Z,99062.77
2023-04-24T11:37:39.964Z,99073.13
2023-04-24T11:40:11.450Z,99074.88
2023-04-24T11:42:45.107Z,99072.55
2023-04-24T11:45:16.298Z,99081.84
2023-04-24T11:47:43.741Z,99090.81
2023-04-24T11:50:15.320Z,99099.55
2023-04-24T11:52:43.851Z,99095.89
2023-04-24T11:55:16.663Z,99098.77
2023-04-24T11:57:45.055Z,99095.29
2023-04-24T12:00:19.968Z,99095.79
2023-04-24T12:02:47.253Z,99091.02
2023-04-24T12:05:40.512Z,99088.17
2023-04-24T12:08:07.372Z,99089.15
2023-04-24T12:10:35.268Z,99086.79
2023-04-24T12:13:01.954Z,99087.90
2023-04-24T12:15:29.275Z,99089.36
2023-04-24T12:17:56.121Z,99081.88
2023-04-24T12:20:28.201Z,99078.78
2023-04-24T12:22:58.398Z,99076.85
2023-04-24T12:25:26.484Z,99082.41
2023-04-24T12:28:12.784Z,99086.28
2023-04-24T12:30:48.804Z,99091.96
2023-04-24T12:33:22.207Z,99089.09
2023-04-24T12:35:51.876Z,99083.17
2023-04-24T12:38:22.669Z,99079.42
2023-04-24T12:41:05.164Z,99076.65
2023-04-24T12:43:32.474Z,99072.02
2023-04-24T12:45:59.609Z,99073.66
2023-04-24T12:48:27.444Z,99068.59
2023-04-24T12:50:54.157Z,99064.98
2023-04-24T12:53:20.812Z,99064.40
2023-04-24T12:55:52.839Z,99062.63
2023-04-24T12:58:20.883Z,99060.58
2023-04-24T13:00:47.905Z,99058.30
2023-04-24T13:03:15.270Z,99055.02
2023-04-24T13:05:43.182Z,99052.55
2023-04-24T13:08:09.886Z,99055.89
2023-04-24T13:10:37.833Z,99058.59
2023-04-24T13:13:04.921Z,99054.82
2023-04-24T13:15:31.986Z,99049.88
2023-04-24T13:17:58.630Z,99047.52
2023-04-24T13:20:25.853Z,99045.38
2023-04-24T13:22:52.613Z,99046.81
2023-04-24T13:25:20.863Z,99046.06
2023-04-24T13:27:47.571Z,99043.90
2023-04-24T13:30:14.586Z,99042.66
2023-04-24T13:32:41.427Z,99038.64
2023-04-24T13:35:08.893Z,99035.39
2023-04-24T13:37:35.626Z,99034.98
2023-04-24T13:40:06.409Z,99038.72
2023-04-24T13:42:33.683Z,99030.75
2023-04-24T13:45:01.001Z,99031.24
2023-04-24T13:47:30.024Z,99027.77
2023-04-24T13:49:56.648Z,99027.40
2023-04-24T13:52:23.304Z,99031.85
2023-04-24T13:54:50.027Z,99028.52
2023-04-24T13:57:17.228Z,99029.13
2023-04-24T13:59:43.929Z,99029.38
2023-04-24T14:02:10.690Z,99022.14
2023-04-24T14:04:38.078Z,99020.00
2023-04-24T14:07:05.272Z,99019.73
2023-04-24T14:09:32.147Z,99012.68
2023-04-24T14:11:58.955Z,99012.64
2023-04-24T14:14:25.734Z,99006.37
2023-04-24T14:16:52.329Z,99008.15
2023-04-24T14:19:18.999Z,99006.69
2023-04-24T14:21:45.601Z,99008.05
2023-04-24T14:24:12.282Z,99009.42
2023-04-24T14:26:39.147Z,99009.80
2023-04-24T14:29:14.115Z,99004.06
2023-04-24T14:31:41.648Z,99007.23
2023-04-24T14:34:08.636Z,99006.30
2023-04-24T14:36:35.691Z,99007.11
2023-04-24T14:39:06.614Z,98997.07
2023-04-24T14:41:36.182Z,98991.89
2023-04-24T14:44:03.536Z,98989.09
2023-04-24T14:46:30.877Z,98986.11
2023-04-24T14:48:58.268Z,98985.23
2023-04-24T14:51:25.907Z,98987.09
2023-04-24T14:53:52.863Z,98981.29
2023-04-24T14:56:19.593Z,98982.67
2023-04-24T14:58:46.245Z,98982.37
2023-04-24T15:01:12.896Z,98982.90
2023-04-24T15:03:39.700Z,98979.66
2023-04-24T15:06:07.012Z,98978.42
2023-04-24T15:08:33.638Z,98974.33
2023-04-24T15:11:00.426Z,98968.42
2023-04-24T15:13:27.099Z,98972.86
2023-04-24T15:15:54.207Z,98969.45
2023-04-24T15:18:21.039Z,98965.73
2023-04-24T15:20:47.704Z,98967.38
2023-04-24T15:23:14.324Z,98964.59
2023-04-24T15:25:40.994Z,98965.04
2023-04-24T15:28:07.664Z,98962.95
2023-04-24T15:30:35.052Z,98961.33
2023-04-24T15:33:02.269Z,98961.48
2023-04-24T15:35:29.182Z,98954.91
2023-04-24T15:37:55.774Z,98955.48
2023-04-24T15:40:22.444Z,98946.90
2023-04-24T15:42:49.301Z,98946.45
2023-04-24T15:45:16.030Z,98943.77
2023-04-24T15:47:44.727Z,98943.81
2023-04-24T15:50:14.134Z,98938.19
2023-04-24T15:52:42.009Z,98934.48
2023-04-24T15:55:09.066Z,98929.66
2023-04-24T15:57:35.734Z,98927.70
2023-04-24T16:00:06.460Z,98926.21
2023-04-24T16:02:38.891Z,98921.63
2023-04-24T16:05:06.864Z,98927.08
2023-04-24T16:07:34.734Z,98924.48
2023-04-24T16:10:01.328Z,98930.73
2023-04-24T16:12:28.888Z,98926.64
2023-04-24T16:14:55.591Z,98927.83
2023-04-24T16:17:22.625Z,98925.98
2023-04-24T16:19:49.346Z,98917.73
2023-04-24T16:22:16.104Z,98918.07
2023-04-24T16:24:43.133Z,98917.41
2023-04-24T16:27:10.381Z,98912.70
2023-04-24T16:29:37.377Z,98914.34
2023-04-24T16:32:04.055Z,98912.94
2023-04-24T16:34:30.944Z,98912.81
2023-04-24T16:36:57.663Z,98915.51
2023-04-24T16:39:25.307Z,98913.48
2023-04-24T16:41:54.087Z,98916.05
2023-04-24T16:44:20.787Z,98911.08
2023-04-24T16:46:47.465Z,98911.09
2023-04-24T16:49:14.154Z,98913.25
2023-04-24T16:51:40.786Z,98912.67
2023-04-24T16:54:07.357Z,98909.23
2023-04-24T16:56:34.780Z,98912.10
2023-04-24T16:59:01.389Z,98909.18
2023-04-24T17:01:28.243Z,98909.53
2023-04-24T17:03:55.542Z,98912.61
2023-04-24T17:06:22.318Z,98911.33
2023-04-24T17:08:49.063Z,98916.63
2023-04-24T17:11:15.818Z,98913.38
2023-04-24T17:13:42.661Z,98913.76
2023-04-24T17:16:09.311Z,98910.63
2023-04-24T17:18:36.391Z,98911.93
2023-04-24T17:21:03.109Z,98911.61
2023-04-24T17:23:31.262Z,98914.50
2023-04-24T17:25:57.866Z,98912.40
2023-04-24T17:28:26.609Z,98913.95
2023-04-24T17:30:55.007Z,98913.96
2023-04-24T17:33:21.696Z,98916.83
2023-04-24T17:35:49.610Z,98918.17
2023-04-24T17:38:17.568Z,98916.50
2023-04-24T17:40:45.653Z,98919.64
2023-04-24T17:43:17.518Z,98918.72
2023-04-24T17:45:45.032Z,98916.83
2023-04-24T17:48:13.172Z,98923.56
2023-04-24T17:50:40.067Z,98923.31
2023-04-24T17:53:07.192Z,98924.80
2023-04-24T17:55:34.415Z,98924.52
2023-04-24T17:58:04.005Z,98928.50
2023-04-24T18:00:31.726Z,98933.24
2023-04-24T18:03:00.515Z,98931.09
2023-04-24T18:05:28.408Z,98937.84
2023-04-24T18:07:55.346Z,98938.36
2023-04-24T18:10:22.686Z,98942.92
2023-04-24T18:12:49.294Z,98942.27
2023-04-24T18:15:16.501Z,98941.85
2023-04-24T18:17:43.188Z,98945.61
2023-04-24T18:20:11.353Z,98950.09
2023-04-24T18:22:38.587Z,98954.34
2023-04-24T18:25:05.962Z,98959.36
2023-04-24T18:27:33.497Z,98959.52
2023-04-24T18:30:00.221Z,98960.37
2023-04-24T18:32:27.187Z,98961.23
2023-04-24T18:34:53.803Z,98961.11
2023-04-24T18:37:20.708Z,98965.45
2023-04-24T18:39:47.382Z,98966.88
2023-04-24T18:42:14.177Z,98967.20
2023-04-24T18:44:42.192Z,98968.70
2023-04-24T18:47:09.232Z,98969.61
2023-04-24T18:49:35.966Z,98969.46
2023-04-24T18:52:02.785Z,98969.66
2023-04-24T18:54:29.746Z,98972.70
2023-04-24T18:56:56.561Z,98968.64
2023-04-24T18:59:23.298Z,98968.26
2023-04-24T19:01:50.167Z,98969.98
2023-04-24T19:04:17.873Z,98970.92
2023-04-24T19:06:44.669Z,98967.55
2023-04-24T19:09:11.448Z,98966.64
2023-04-24T19:11:38.172Z,98966.13
2023-04-24T19:14:05.225Z,98963.65
2023-04-24T19:16:31.859Z,98963.69
2023-04-24T19:18:58.775Z,98964.92
2023-04-24T19:21:25.757Z,98959.84
2023-04-24T19:23:52.447Z,98964.27
2023-04-24T19:26:20.965Z,98961.86
2023-04-24T19:28:47.807Z,98960.20
2023-04-24T19:31:14.992Z,98957.81
2023-04-24T19:33:41.896Z,98959.79
2023-04-24T19:36:08.532Z,98957.88
2023-04-24T19:38:35.562Z,98956.19
2023-04-24T19:41:02.420Z,98956.91
2023-04-24T19:43:29.298Z,98952.20
2023-04-24T19:45:57.316Z,98953.63
2023-04-24T19:48:24.007Z,98947.13
2023-04-24T19:50:50.853Z,98951.35
2023-04-24T19:53:18.257Z,98948.64
2023-04-24T19:55:45.440Z,98946.31
2023-04-24T19:58:12.029Z,98943.32
2023-04-24T20:00:40.755Z,98946.45
2023-04-24T20:03:08.436Z,98945.02
2023-04-24T20:05:37.286Z,98942.97
2023-04-24T20:08:04.164Z,98940.45
2023-04-24T20:10:30.824Z,98938.20
2023-04-24T20:12:57.469Z,98941.64
2023-04-24T20:15:24.067Z,98939.79
2023-04-24T20:17:50.698Z,98941.35
2023-04-24T20:20:17.814Z,98941.52
2023-04-24T20:22:44.452Z,98936.74
2023-04-24T20:25:12.866Z,98940.77
2023-04-24T20:27:40.417Z,98940.52
2023-04-24T20:30:12.275Z,98949.21
2023-04-24T20:32:40.218Z,98946.92
2023-04-24T20:35:07.284Z,98951.98
2023-04-24T20:37:35.713Z,98951.90
2023-04-24T20:40:04.992Z,98950.11
2023-04-24T20:42:32.262Z,98947.73
2023-04-24T20:44:59.278Z,98948.23
2023-04-24T20:47:26.257Z,98945.96
2023-04-24T20:49:53.360Z,98945.48
2023-04-24T20:52:20.326Z,98934.49
2023-04-24T20:54:47.755Z,98933.35
2023-04-24T20:57:15.235Z,98933.66
2023-04-24T20:59:42.154Z,98934.27
2023-04-24T21:02:08.868Z,98938.91
2023-04-24T21:04:37.987Z,98940.91
2023-04-24T21:07:05.624Z,98936.96
2023-04-24T21:09:32.232Z,98934.33
2023-04-24T21:11:58.780Z,98935.55
2023-04-24T21:14:25.434Z,98932.23
2023-04-24T21:16:52.090Z,98932.21
2023-04-24T21:19:19.005Z,98934.04
2023-04-24T21:21:45.782Z,98937.05
2023-04-24T21:24:12.489Z,98933.64
2023-04-24T21:26:39.114Z,98932.23
2023-04-24T21:29:05.759Z,98928.00
2023-04-24T21:31:32.588Z,98922.96
2023-04-24T21:33:59.307Z,98920.58
2023-04-24T21:36:26.253Z,98918.04
2023-04-24T21:38:52.841Z,98915.40
2023-04-24T21:41:19.795Z,98917.47
2023-04-24T21:43:47.903Z,98918.27
2023-04-24T21:46:16.525Z,98911.74
2023-04-24T21:48:43.203Z,98910.70
2023-04-24T21:51:09.993Z,98909.90
2023-04-24T21:53:36.745Z,98907.90
2023-04-24T21:56:03.521Z,98902.85
2023-04-24T21:58:30.176Z,98904.30
2023-04-24T22:00:57.129Z,98905.14
2023-04-24T22:03:24.141Z,98902.66
2023-04-24T22:05:50.989Z,98904.05
2023-04-24T22:08:18.029Z,98907.05
2023-04-24T22:10:44.698Z,98913.79
2023-04-24T22:13:11.585Z,98915.23
2023-04-24T22:15:38.140Z,98908.95
2023-04-24T22:18:06.097Z,98910.33
2023-04-24T22:20:33.662Z,98906.48
2023-04-24T22:23:00.450Z,98904.25
2023-04-24T22:25:27.113Z,98900.71
2023-04-24T22:27:53.783Z,98890.69
2023-04-24T22:30:20.429Z,98893.84
2023-04-24T22:32:47.337Z,98889.48
2023-04-24T22:35:13.975Z,98887.71
2023-04-24T22:37:40.652Z,98890.54
2023-04-24T22:40:07.878Z,98888.35
2023-04-24T22:42:34.746Z,98886.01
2023-04-24T22:45:01.480Z,98882.30
2023-04-24T22:47:28.517Z,98885.39
2023-04-24T22:49:57.163Z,98883.89
2023-04-24T22:52:23.732Z,98880.23
2023-04-24T22:54:51.192Z,98878.83
2023-04-24T22:57:17.860Z,98875.80
2023-04-24T22:59:44.588Z,98877.73
2023-04-24T23:02:11.264Z,98871.35
2023-04-24T23:04:38.087Z,98872.08
2023-04-24T23:07:04.981Z,98867.03
2023-04-24T23:09:31.857Z,98864.83
2023-04-24T23:11:58.662Z,98871.34
2023-04-24T23:14:25.308Z,98863.91
2023-04-24T23:16:52.032Z,98866.11
2023-04-24T23:19:18.728Z,98861.29
2023-04-24T23:21:45.317Z,98859.24
2023-04-24T23:24:11.977Z,98859.53
2023-04-24T23:26:38.627Z,98859.41
2023-04-24T23:29:05.409Z,98859.55
2023-04-24T23:31:32.214Z,98856.06
2023-04-24T23:33:59.725Z,98856.20
2023-04-24T23:36:26.333Z,98854.14
2023-04-24T23:38:52.913Z,98856.99
2023-04-24T23:41:19.499Z,98854.98
2023-04-24T23:43:46.205Z,98850.13
2023-04-24T23:46:13.245Z,98846.98
2023-04-24T23:48:40.073Z,98843.45
2023-04-24T23:51:06.684Z,98839.19
2023-04-24T23:53:33.471Z,98836.10
2023-04-24T23:56:00.234Z,98833.38
2023-04-24T23:58:26.861Z,98828.31
